sensor_id;sensor_type;location;lat;lon;timestamp;temperature;humidity
9225;DHT22;4647;48.072;11.616;2022-07-19T00:01:55;16.40;99.90
9225;DHT22;4647;48.072;11.616;2022-07-19T00:04:22;16.30;99.90
9225;DHT22;4647;48.072;11.616;2022-07-19T00:06:49;16.20;99.90
9225;DHT22;4647;48.072;11.616;2022-07-19T00:09:16;16.10;99.90
9225;DHT22;4647;48.072;11.616;2022-07-19T00:11:43;16.20;99.90
9225;DHT22;4647;48.072;11.616;2022-07-19T00:14:10;16.20;99.90
9225;DHT22;4647;48.072;11.616;2022-07-19T00:16:38;16.10;99.90
9225;DHT22;4647;48.072;11.616;2022-07-19T00:19:05;16.00;99.90
9225;DHT22;4647;48.072;11.616;2022-07-19T00:21:32;16.00;99.90
9225;DHT22;4647;48.072;11.616;2022-07-19T00:23:58;15.90;99.90
9225;DHT22;4647;48.072;11.616;2022-07-19T00:26:26;15.90;99.90
9225;DHT22;4647;48.072;11.616;2022-07-19T00:28:53;15.80;99.90
9225;DHT22;4647;48.072;11.616;2022-07-19T00:31:20;15.80;99.90
9225;DHT22;4647;48.072;11.616;2022-07-19T00:33:49;15.80;99.90
9225;DHT22;4647;48.072;11.616;2022-07-19T00:36:16;16.00;99.90
9225;DHT22;4647;48.072;11.616;2022-07-19T00:38:43;16.00;99.90
9225;DHT22;4647;48.072;11.616;2022-07-19T00:41:10;16.10;99.90
9225;DHT22;4647;48.072;11.616;2022-07-19T00:43:39;16.10;99.90
9225;DHT22;4647;48.072;11.616;2022-07-19T00:46:12;15.90;99.90
9225;DHT22;4647;48.072;11.616;2022-07-19T00:48:39;15.80;99.90
9225;DHT22;4647;48.072;11.616;2022-07-19T00:51:08;15.80;99.90
9225;DHT22;4647;48.072;11.616;2022-07-19T00:53:37;15.90;99.90
9225;DHT22;4647;48.072;11.616;2022-07-19T00:56:05;15.90;99.90
9225;DHT22;4647;48.072;11.616;2022-07-19T00:58:33;16.00;99.90
9225;DHT22;4647;48.072;11.616;2022-07-19T01:01:01;16.00;99.90
9225;DHT22;4647;48.072;11.616;2022-07-19T01:03:28;16.10;99.90
9225;DHT22;4647;48.072;11.616;2022-07-19T01:05:55;16.10;99.90
9225;DHT22;4647;48.072;11.616;2022-07-19T01:08:24;15.90;99.90
9225;DHT22;4647;48.072;11.616;2022-07-19T01:10:51;15.80;99.90
9225;DHT22;4647;48.072;11.616;2022-07-19T01:13:17;15.80;99.90
9225;DHT22;4647;48.072;11.616;2022-07-19T01:15:44;15.90;99.90
9225;DHT22;4647;48.072;11.616;2022-07-19T01:18:11;15.80;99.90
9225;DHT22;4647;48.072;11.616;2022-07-19T01:20:38;15.80;99.90
9225;DHT22;4647;48.072;11.616;2022-07-19T01:23:07;15.80;99.90
9225;DHT22;4647;48.072;11.616;2022-07-19T01:25:35;15.80;99.90
9225;DHT22;4647;48.072;11.616;2022-07-19T01:28:04;15.70;99.90
9225;DHT22;4647;48.072;11.616;2022-07-19T01:30:31;15.60;99.90
9225;DHT22;4647;48.072;11.616;2022-07-19T01:32:59;15.70;99.90
9225;DHT22;4647;48.072;11.616;2022-07-19T01:35:26;15.60;99.90
9225;DHT22;4647;48.072;11.616;2022-07-19T01:37:54;15.60;99.90
9225;DHT22;4647;48.072;11.616;2022-07-19T01:40:23;15.60;99.90
9225;DHT22;4647;48.072;11.616;2022-07-19T01:42:51;15.50;99.90
9225;DHT22;4647;48.072;11.616;2022-07-19T01:45:18;15.50;99.90
9225;DHT22;4647;48.072;11.616;2022-07-19T01:47:46;15.50;99.90
9225;DHT22;4647;48.072;11.616;2022-07-19T01:50:14;15.60;99.90
9225;DHT22;4647;48.072;11.616;2022-07-19T01:52:42;15.60;99.90
9225;DHT22;4647;48.072;11.616;2022-07-19T01:55:09;15.60;99.90
9225;DHT22;4647;48.072;11.616;2022-07-19T01:57:37;15.60;99.90
9225;DHT22;4647;48.072;11.616;2022-07-19T02:00:05;15.50;99.90
9225;DHT22;4647;48.072;11.616;2022-07-19T02:02:32;15.40;99.90
9225;DHT22;4647;48.072;11.616;2022-07-19T02:04:59;15.30;99.90
9225;DHT22;4647;48.072;11.616;2022-07-19T02:07:26;15.30;99.90
9225;DHT22;4647;48.072;11.616;2022-07-19T02:09:53;15.30;99.90
9225;DHT22;4647;48.072;11.616;2022-07-19T02:12:22;15.30;99.90
9225;DHT22;4647;48.072;11.616;2022-07-19T02:14:50;15.30;99.90
9225;DHT22;4647;48.072;11.616;2022-07-19T02:17:17;15.30;99.90
9225;DHT22;4647;48.072;11.616;2022-07-19T02:19:43;15.30;99.90
9225;DHT22;4647;48.072;11.616;2022-07-19T02:22:10;15.20;99.90
9225;DHT22;4647;48.072;11.616;2022-07-19T02:24:37;15.30;99.90
9225;DHT22;4647;48.072;11.616;2022-07-19T02:27:08;15.20;99.90
9225;DHT22;4647;48.072;11.616;2022-07-19T02:29:35;15.20;99.90
9225;DHT22;4647;48.072;11.616;2022-07-19T02:32:04;15.10;99.90
9225;DHT22;4647;48.072;11.616;2022-07-19T02:34:32;15.10;99.90
9225;DHT22;4647;48.072;11.616;2022-07-19T02:36:59;14.90;99.90
9225;DHT22;4647;48.072;11.616;2022-07-19T02:39:26;14.80;99.90
9225;DHT22;4647;48.072;11.616;2022-07-19T02:41:52;14.80;99.90
9225;DHT22;4647;48.072;11.616;2022-07-19T02:44:19;14.80;99.90
9225;DHT22;4647;48.072;11.616;2022-07-19T02:46:46;14.80;99.90
9225;DHT22;4647;48.072;11.616;2022-07-19T02:49:14;14.80;99.90
9225;DHT22;4647;48.072;11.616;2022-07-19T02:51:41;14.80;99.90
9225;DHT22;4647;48.072;11.616;2022-07-19T02:54:08;14.80;99.90
9225;DHT22;4647;48.072;11.616;2022-07-19T02:56:35;14.80;99.90
9225;DHT22;4647;48.072;11.616;2022-07-19T02:59:02;14.70;99.90
9225;DHT22;4647;48.072;11.616;2022-07-19T03:01:30;14.60;99.90
9225;DHT22;4647;48.072;11.616;2022-07-19T03:03:57;14.40;99.90
9225;DHT22;4647;48.072;11.616;2022-07-19T03:06:26;14.50;99.90
9225;DHT22;4647;48.072;11.616;2022-07-19T03:08:53;14.60;99.90
9225;DHT22;4647;48.072;11.616;2022-07-19T03:11:20;14.60;99.90
9225;DHT22;4647;48.072;11.616;2022-07-19T03:13:47;14.60;99.90
9225;DHT22;4647;48.072;11.616;2022-07-19T03:16:14;14.60;99.90
9225;DHT22;4647;48.072;11.616;2022-07-19T03:18:41;14.70;99.90
9225;DHT22;4647;48.072;11.616;2022-07-19T03:21:08;14.70;99.90
9225;DHT22;4647;48.072;11.616;2022-07-19T03:23:37;14.60;99.90
9225;DHT22;4647;48.072;11.616;2022-07-19T03:26:04;14.60;99.90
9225;DHT22;4647;48.072;11.616;2022-07-19T03:28:32;14.60;99.90
9225;DHT22;4647;48.072;11.616;2022-07-19T03:30:59;14.70;99.90
9225;DHT22;4647;48.072;11.616;2022-07-19T03:33:26;14.70;99.90
9225;DHT22;4647;48.072;11.616;2022-07-19T03:35:53;14.50;99.90
9225;DHT22;4647;48.072;11.616;2022-07-19T03:38:20;14.40;99.90
9225;DHT22;4647;48.072;11.616;2022-07-19T03:40:48;14.50;99.90
9225;DHT22;4647;48.072;11.616;2022-07-19T03:43:16;14.50;99.90
9225;DHT22;4647;48.072;11.616;2022-07-19T03:45:43;14.50;99.90
9225;DHT22;4647;48.072;11.616;2022-07-19T03:48:11;14.50;99.90
9225;DHT22;4647;48.072;11.616;2022-07-19T03:50:38;14.60;99.90
9225;DHT22;4647;48.072;11.616;2022-07-19T03:53:05;14.70;99.90
9225;DHT22;4647;48.072;11.616;2022-07-19T03:55:32;15.00;99.90
9225;DHT22;4647;48.072;11.616;2022-07-19T03:58:01;15.30;99.90
9225;DHT22;4647;48.072;11.616;2022-07-19T04:00:28;15.60;99.90
9225;DHT22;4647;48.072;11.616;2022-07-19T04:02:54;15.60;99.90
9225;DHT22;4647;48.072;11.616;2022-07-19T04:05:21;15.60;99.90
9225;DHT22;4647;48.072;11.616;2022-07-19T04:07:48;15.70;99.90
9225;DHT22;4647;48.072;11.616;2022-07-19T04:10:15;16.00;99.90
9225;DHT22;4647;48.072;11.616;2022-07-19T04:12:42;16.60;99.90
9225;DHT22;4647;48.072;11.616;2022-07-19T04:15:12;17.00;99.20
9225;DHT22;4647;48.072;11.616;2022-07-19T04:17:39;17.30;98.40
9225;DHT22;4647;48.072;11.616;2022-07-19T04:20:06;17.60;97.40
9225;DHT22;4647;48.072;11.616;2022-07-19T04:22:33;17.90;96.00
9225;DHT22;4647;48.072;11.616;2022-07-19T04:25:00;18.00;95.50
9225;DHT22;4647;48.072;11.616;2022-07-19T04:27:29;18.30;95.20
9225;DHT22;4647;48.072;11.616;2022-07-19T04:29:56;18.40;94.50
9225;DHT22;4647;48.072;11.616;2022-07-19T04:32:25;18.50;94.00
9225;DHT22;4647;48.072;11.616;2022-07-19T04:34:52;18.40;93.70
9225;DHT22;4647;48.072;11.616;2022-07-19T04:37:19;18.30;93.80
9225;DHT22;4647;48.072;11.616;2022-07-19T04:39:45;18.40;93.60
9225;DHT22;4647;48.072;11.616;2022-07-19T04:42:12;18.80;92.90
9225;DHT22;4647;48.072;11.616;2022-07-19T04:44:41;19.10;92.10
9225;DHT22;4647;48.072;11.616;2022-07-19T04:47:07;19.40;91.40
9225;DHT22;4647;48.072;11.616;2022-07-19T04:49:36;19.50;91.50
9225;DHT22;4647;48.072;11.616;2022-07-19T04:52:03;19.80;90.70
9225;DHT22;4647;48.072;11.616;2022-07-19T04:54:31;20.30;89.60
9225;DHT22;4647;48.072;11.616;2022-07-19T04:56:58;20.70;87.10
9225;DHT22;4647;48.072;11.616;2022-07-19T04:59:25;20.70;85.50
9225;DHT22;4647;48.072;11.616;2022-07-19T05:01:51;21.20;84.00
9225;DHT22;4647;48.072;11.616;2022-07-19T05:04:18;21.60;80.80
9225;DHT22;4647;48.072;11.616;2022-07-19T05:06:47;21.90;79.10
9225;DHT22;4647;48.072;11.616;2022-07-19T05:09:17;22.30;76.40
9225;DHT22;4647;48.072;11.616;2022-07-19T05:11:44;22.60;75.10
9225;DHT22;4647;48.072;11.616;2022-07-19T05:14:11;22.60;73.20
9225;DHT22;4647;48.072;11.616;2022-07-19T05:16:38;22.70;72.70
9225;DHT22;4647;48.072;11.616;2022-07-19T05:19:05;22.80;71.40
9225;DHT22;4647;48.072;11.616;2022-07-19T05:21:32;22.70;71.10
9225;DHT22;4647;48.072;11.616;2022-07-19T05:24:00;22.90;70.00
9225;DHT22;4647;48.072;11.616;2022-07-19T05:26:27;22.90;70.30
9225;DHT22;4647;48.072;11.616;2022-07-19T05:28:54;23.20;70.10
9225;DHT22;4647;48.072;11.616;2022-07-19T05:31:21;22.70;70.60
9225;DHT22;4647;48.072;11.616;2022-07-19T05:33:48;22.60;70.10
9225;DHT22;4647;48.072;11.616;2022-07-19T05:36:15;22.50;71.90
9225;DHT22;4647;48.072;11.616;2022-07-19T05:38:42;22.90;70.80
9225;DHT22;4647;48.072;11.616;2022-07-19T05:41:10;23.00;70.30
9225;DHT22;4647;48.072;11.616;2022-07-19T05:43:38;23.30;69.50
9225;DHT22;4647;48.072;11.616;2022-07-19T05:46:05;23.50;68.60
9225;DHT22;4647;48.072;11.616;2022-07-19T05:48:32;23.70;68.00
9225;DHT22;4647;48.072;11.616;2022-07-19T05:50:59;23.50;68.90
9225;DHT22;4647;48.072;11.616;2022-07-19T05:53:27;23.30;69.10
9225;DHT22;4647;48.072;11.616;2022-07-19T05:55:54;23.30;69.70
9225;DHT22;4647;48.072;11.616;2022-07-19T05:58:22;23.60;69.50
9225;DHT22;4647;48.072;11.616;2022-07-19T06:00:50;23.40;69.10
9225;DHT22;4647;48.072;11.616;2022-07-19T06:03:35;22.80;70.90
9225;DHT22;4647;48.072;11.616;2022-07-19T06:06:02;22.30;72.30
9225;DHT22;4647;48.072;11.616;2022-07-19T06:08:29;21.90;73.80
9225;DHT22;4647;48.072;11.616;2022-07-19T06:10:56;21.80;75.10
9225;DHT22;4647;48.072;11.616;2022-07-19T06:13:24;21.80;75.10
9225;DHT22;4647;48.072;11.616;2022-07-19T06:15:51;21.90;74.90
9225;DHT22;4647;48.072;11.616;2022-07-19T06:18:18;22.00;75.00
9225;DHT22;4647;48.072;11.616;2022-07-19T06:20:45;22.10;73.90
9225;DHT22;4647;48.072;11.616;2022-07-19T06:23:12;22.10;73.50
9225;DHT22;4647;48.072;11.616;2022-07-19T06:25:39;22.10;73.20
9225;DHT22;4647;48.072;11.616;2022-07-19T06:28:06;22.20;73.70
9225;DHT22;4647;48.072;11.616;2022-07-19T06:30:34;22.30;73.20
9225;DHT22;4647;48.072;11.616;2022-07-19T06:33:01;22.40;73.20
9225;DHT22;4647;48.072;11.616;2022-07-19T06:35:28;22.40;72.90
9225;DHT22;4647;48.072;11.616;2022-07-19T06:37:55;22.50;72.60
9225;DHT22;4647;48.072;11.616;2022-07-19T06:40:22;22.70;72.40
9225;DHT22;4647;48.072;11.616;2022-07-19T06:42:49;22.80;72.10
9225;DHT22;4647;48.072;11.616;2022-07-19T06:45:16;23.00;71.60
9225;DHT22;4647;48.072;11.616;2022-07-19T06:47:44;23.10;71.60
9225;DHT22;4647;48.072;11.616;2022-07-19T06:50:11;23.10;70.80
9225;DHT22;4647;48.072;11.616;2022-07-19T06:52:38;23.20;71.00
9225;DHT22;4647;48.072;11.616;2022-07-19T06:55:05;23.30;69.80
9225;DHT22;4647;48.072;11.616;2022-07-19T06:57:32;23.30;69.10
9225;DHT22;4647;48.072;11.616;2022-07-19T06:59:59;23.40;70.10
9225;DHT22;4647;48.072;11.616;2022-07-19T07:02:26;23.50;70.10
9225;DHT22;4647;48.072;11.616;2022-07-19T07:04:55;23.50;69.20
9225;DHT22;4647;48.072;11.616;2022-07-19T07:07:21;23.50;69.60
9225;DHT22;4647;48.072;11.616;2022-07-19T07:09:48;23.60;69.70
9225;DHT22;4647;48.072;11.616;2022-07-19T07:12:15;23.60;68.10
9225;DHT22;4647;48.072;11.616;2022-07-19T07:14:42;23.60;68.20
9225;DHT22;4647;48.072;11.616;2022-07-19T07:17:09;23.70;69.40
9225;DHT22;4647;48.072;11.616;2022-07-19T07:19:36;23.70;67.30
9225;DHT22;4647;48.072;11.616;2022-07-19T07:22:04;23.80;67.60
9225;DHT22;4647;48.072;11.616;2022-07-19T07:24:31;24.00;66.50
9225;DHT22;4647;48.072;11.616;2022-07-19T07:26:58;24.10;66.40
9225;DHT22;4647;48.072;11.616;2022-07-19T07:29:25;24.20;66.00
9225;DHT22;4647;48.072;11.616;2022-07-19T07:31:52;24.40;65.30
9225;DHT22;4647;48.072;11.616;2022-07-19T07:34:19;24.40;64.60
9225;DHT22;4647;48.072;11.616;2022-07-19T07:36:45;24.40;64.30
9225;DHT22;4647;48.072;11.616;2022-07-19T07:39:14;24.40;64.60
9225;DHT22;4647;48.072;11.616;2022-07-19T07:41:41;24.60;64.40
9225;DHT22;4647;48.072;11.616;2022-07-19T07:44:08;24.60;63.00
9225;DHT22;4647;48.072;11.616;2022-07-19T07:46:35;24.70;62.80
9225;DHT22;4647;48.072;11.616;2022-07-19T07:49:02;24.90;62.70
9225;DHT22;4647;48.072;11.616;2022-07-19T07:51:29;25.00;61.90
9225;DHT22;4647;48.072;11.616;2022-07-19T07:53:58;25.00;61.60
9225;DHT22;4647;48.072;11.616;2022-07-19T07:56:26;25.10;60.60
9225;DHT22;4647;48.072;11.616;2022-07-19T07:58:53;25.30;60.60
9225;DHT22;4647;48.072;11.616;2022-07-19T08:01:20;25.40;60.20
9225;DHT22;4647;48.072;11.616;2022-07-19T08:03:47;25.60;60.00
9225;DHT22;4647;48.072;11.616;2022-07-19T08:06:14;25.60;57.70
9225;DHT22;4647;48.072;11.616;2022-07-19T08:08:42;25.60;58.20
9225;DHT22;4647;48.072;11.616;2022-07-19T08:11:08;25.70;57.40
9225;DHT22;4647;48.072;11.616;2022-07-19T08:13:37;25.80;55.80
9225;DHT22;4647;48.072;11.616;2022-07-19T08:16:04;25.80;54.50
9225;DHT22;4647;48.072;11.616;2022-07-19T08:18:32;25.80;53.00
9225;DHT22;4647;48.072;11.616;2022-07-19T08:20:59;25.70;53.30
9225;DHT22;4647;48.072;11.616;2022-07-19T08:23:25;25.60;53.40
9225;DHT22;4647;48.072;11.616;2022-07-19T08:25:52;25.70;52.40
9225;DHT22;4647;48.072;11.616;2022-07-19T08:28:19;25.90;52.10
9225;DHT22;4647;48.072;11.616;2022-07-19T08:30:48;26.00;52.30
9225;DHT22;4647;48.072;11.616;2022-07-19T08:33:15;26.10;52.00
9225;DHT22;4647;48.072;11.616;2022-07-19T08:35:41;26.20;51.60
9225;DHT22;4647;48.072;11.616;2022-07-19T08:38:08;26.20;50.70
9225;DHT22;4647;48.072;11.616;2022-07-19T08:40:35;26.30;50.10
9225;DHT22;4647;48.072;11.616;2022-07-19T08:43:05;26.50;50.70
9225;DHT22;4647;48.072;11.616;2022-07-19T08:45:32;26.70;49.70
9225;DHT22;4647;48.072;11.616;2022-07-19T08:48:01;26.80;49.90
9225;DHT22;4647;48.072;11.616;2022-07-19T08:50:29;27.00;49.10
9225;DHT22;4647;48.072;11.616;2022-07-19T08:52:57;27.30;48.50
9225;DHT22;4647;48.072;11.616;2022-07-19T08:55:25;27.30;47.30
9225;DHT22;4647;48.072;11.616;2022-07-19T08:57:52;27.00;46.50
9225;DHT22;4647;48.072;11.616;2022-07-19T09:00:26;27.00;47.20
9225;DHT22;4647;48.072;11.616;2022-07-19T09:02:54;27.10;46.40
9225;DHT22;4647;48.072;11.616;2022-07-19T09:05:24;27.10;46.70
9225;DHT22;4647;48.072;11.616;2022-07-19T09:08:04;27.10;46.00
9225;DHT22;4647;48.072;11.616;2022-07-19T09:10:32;27.10;45.30
9225;DHT22;4647;48.072;11.616;2022-07-19T09:13:03;27.20;44.90
9225;DHT22;4647;48.072;11.616;2022-07-19T09:15:47;27.30;44.70
9225;DHT22;4647;48.072;11.616;2022-07-19T09:18:18;27.30;44.00
9225;DHT22;4647;48.072;11.616;2022-07-19T09:20:48;27.30;43.90
9225;DHT22;4647;48.072;11.616;2022-07-19T09:23:15;27.50;44.90
9225;DHT22;4647;48.072;11.616;2022-07-19T09:25:45;27.80;45.20
9225;DHT22;4647;48.072;11.616;2022-07-19T09:28:14;28.00;44.60
9225;DHT22;4647;48.072;11.616;2022-07-19T09:30:44;28.10;44.00
9225;DHT22;4647;48.072;11.616;2022-07-19T09:33:13;28.10;44.70
9225;DHT22;4647;48.072;11.616;2022-07-19T09:35:42;28.00;44.20
9225;DHT22;4647;48.072;11.616;2022-07-19T09:38:23;27.80;44.20
9225;DHT22;4647;48.072;11.616;2022-07-19T09:40:53;27.70;43.40
9225;DHT22;4647;48.072;11.616;2022-07-19T09:43:21;27.80;43.90
9225;DHT22;4647;48.072;11.616;2022-07-19T09:45:51;27.90;43.00
9225;DHT22;4647;48.072;11.616;2022-07-19T09:48:18;28.00;42.80
9225;DHT22;4647;48.072;11.616;2022-07-19T09:50:46;28.10;43.00
9225;DHT22;4647;48.072;11.616;2022-07-19T09:53:15;28.20;43.70
9225;DHT22;4647;48.072;11.616;2022-07-19T09:55:45;28.30;42.10
9225;DHT22;4647;48.072;11.616;2022-07-19T09:58:13;28.20;42.60
9225;DHT22;4647;48.072;11.616;2022-07-19T10:00:42;28.30;43.00
9225;DHT22;4647;48.072;11.616;2022-07-19T10:03:10;28.40;42.50
9225;DHT22;4647;48.072;11.616;2022-07-19T10:05:38;28.40;40.70
9225;DHT22;4647;48.072;11.616;2022-07-19T10:08:06;28.40;41.20
9225;DHT22;4647;48.072;11.616;2022-07-19T10:10:33;28.50;41.30
9225;DHT22;4647;48.072;11.616;2022-07-19T10:13:01;28.50;42.00
9225;DHT22;4647;48.072;11.616;2022-07-19T10:15:32;28.60;41.10
9225;DHT22;4647;48.072;11.616;2022-07-19T10:18:09;28.70;42.00
9225;DHT22;4647;48.072;11.616;2022-07-19T10:20:38;28.90;41.00
9225;DHT22;4647;48.072;11.616;2022-07-19T10:23:06;28.90;40.70
9225;DHT22;4647;48.072;11.616;2022-07-19T10:25:42;29.10;42.60
9225;DHT22;4647;48.072;11.616;2022-07-19T10:28:29;29.10;43.90
9225;DHT22;4647;48.072;11.616;2022-07-19T10:30:57;29.40;42.60
9225;DHT22;4647;48.072;11.616;2022-07-19T10:33:30;29.50;42.00
9225;DHT22;4647;48.072;11.616;2022-07-19T10:35:59;29.50;41.60
9225;DHT22;4647;48.072;11.616;2022-07-19T10:42:03;29.50;41.00
9225;DHT22;4647;48.072;11.616;2022-07-19T10:44:32;29.60;41.70
9225;DHT22;4647;48.072;11.616;2022-07-19T10:46:59;29.40;39.00
9225;DHT22;4647;48.072;11.616;2022-07-19T10:49:41;29.20;39.80
9225;DHT22;4647;48.072;11.616;2022-07-19T10:52:31;29.30;39.30
9225;DHT22;4647;48.072;11.616;2022-07-19T10:55:25;29.20;39.80
9225;DHT22;4647;48.072;11.616;2022-07-19T10:58:08;29.30;40.30
9225;DHT22;4647;48.072;11.616;2022-07-19T11:00:43;29.60;39.00
9225;DHT22;4647;48.072;11.616;2022-07-19T11:03:27;29.80;38.40
9225;DHT22;4647;48.072;11.616;2022-07-19T11:05:56;29.90;38.20
9225;DHT22;4647;48.072;11.616;2022-07-19T11:08:33;29.90;38.00
9225;DHT22;4647;48.072;11.616;2022-07-19T11:11:04;30.00;38.70
9225;DHT22;4647;48.072;11.616;2022-07-19T11:13:33;30.00;37.00
9225;DHT22;4647;48.072;11.616;2022-07-19T11:16:01;29.90;35.80
9225;DHT22;4647;48.072;11.616;2022-07-19T11:18:29;29.90;37.70
9225;DHT22;4647;48.072;11.616;2022-07-19T11:20:57;29.80;38.10
9225;DHT22;4647;48.072;11.616;2022-07-19T11:23:25;29.80;36.90
9225;DHT22;4647;48.072;11.616;2022-07-19T11:26:05;29.80;36.80
9225;DHT22;4647;48.072;11.616;2022-07-19T11:28:33;29.90;36.80
9225;DHT22;4647;48.072;11.616;2022-07-19T11:31:09;30.00;36.20
9225;DHT22;4647;48.072;11.616;2022-07-19T11:33:37;30.00;34.80
9225;DHT22;4647;48.072;11.616;2022-07-19T11:36:04;30.20;36.50
9225;DHT22;4647;48.072;11.616;2022-07-19T11:38:35;30.30;37.30
9225;DHT22;4647;48.072;11.616;2022-07-19T11:41:03;30.40;34.40
9225;DHT22;4647;48.072;11.616;2022-07-19T11:43:30;30.40;34.30
9225;DHT22;4647;48.072;11.616;2022-07-19T11:45:56;30.30;35.30
9225;DHT22;4647;48.072;11.616;2022-07-19T11:48:26;30.10;34.50
9225;DHT22;4647;48.072;11.616;2022-07-19T11:51:02;30.10;34.20
9225;DHT22;4647;48.072;11.616;2022-07-19T11:53:29;30.10;32.80
9225;DHT22;4647;48.072;11.616;2022-07-19T11:55:55;30.30;33.30
9225;DHT22;4647;48.072;11.616;2022-07-19T11:58:23;30.30;33.50
9225;DHT22;4647;48.072;11.616;2022-07-19T12:00:51;30.50;33.10
9225;DHT22;4647;48.072;11.616;2022-07-19T12:03:18;30.40;33.50
9225;DHT22;4647;48.072;11.616;2022-07-19T12:05:58;30.50;33.70
9225;DHT22;4647;48.072;11.616;2022-07-19T12:08:35;30.60;33.30
9225;DHT22;4647;48.072;11.616;2022-07-19T12:11:18;30.60;33.00
9225;DHT22;4647;48.072;11.616;2022-07-19T12:13:46;30.70;32.00
9225;DHT22;4647;48.072;11.616;2022-07-19T12:16:13;30.40;33.20
9225;DHT22;4647;48.072;11.616;2022-07-19T12:18:58;30.30;32.80
9225;DHT22;4647;48.072;11.616;2022-07-19T12:21:37;30.20;31.70
9225;DHT22;4647;48.072;11.616;2022-07-19T12:24:15;30.30;31.60
9225;DHT22;4647;48.072;11.616;2022-07-19T12:26:44;30.50;31.30
9225;DHT22;4647;48.072;11.616;2022-07-19T12:29:20;30.60;31.80
9225;DHT22;4647;48.072;11.616;2022-07-19T12:31:48;30.70;32.30
9225;DHT22;4647;48.072;11.616;2022-07-19T12:34:16;30.80;32.60
9225;DHT22;4647;48.072;11.616;2022-07-19T12:36:45;30.80;32.00
9225;DHT22;4647;48.072;11.616;2022-07-19T12:39:26;30.90;32.20
9225;DHT22;4647;48.072;11.616;2022-07-19T12:42:02;30.90;31.40
9225;DHT22;4647;48.072;11.616;2022-07-19T12:44:30;30.80;31.90
9225;DHT22;4647;48.072;11.616;2022-07-19T12:46:57;30.70;32.20
9225;DHT22;4647;48.072;11.616;2022-07-19T12:49:25;31.00;32.60
9225;DHT22;4647;48.072;11.616;2022-07-19T12:51:53;31.10;32.50
9225;DHT22;4647;48.072;11.616;2022-07-19T12:54:20;31.30;32.00
9225;DHT22;4647;48.072;11.616;2022-07-19T12:56:46;31.20;33.60
9225;DHT22;4647;48.072;11.616;2022-07-19T12:59:13;31.20;33.50
9225;DHT22;4647;48.072;11.616;2022-07-19T13:01:57;31.20;33.30
9225;DHT22;4647;48.072;11.616;2022-07-19T13:04:24;31.20;33.60
9225;DHT22;4647;48.072;11.616;2022-07-19T13:06:53;31.10;33.20
9225;DHT22;4647;48.072;11.616;2022-07-19T13:09:19;31.10;32.10
9225;DHT22;4647;48.072;11.616;2022-07-19T13:11:46;31.10;33.00
9225;DHT22;4647;48.072;11.616;2022-07-19T13:14:13;31.10;32.00
9225;DHT22;4647;48.072;11.616;2022-07-19T13:16:40;31.10;33.30
9225;DHT22;4647;48.072;11.616;2022-07-19T13:19:07;31.30;31.50
9225;DHT22;4647;48.072;11.616;2022-07-19T13:21:35;31.50;32.60
9225;DHT22;4647;48.072;11.616;2022-07-19T13:24:04;31.60;32.10
9225;DHT22;4647;48.072;11.616;2022-07-19T13:26:31;31.70;33.00
9225;DHT22;4647;48.072;11.616;2022-07-19T13:28:57;31.80;34.90
9225;DHT22;4647;48.072;11.616;2022-07-19T13:31:24;31.50;35.80
9225;DHT22;4647;48.072;11.616;2022-07-19T13:33:51;31.50;36.00
9225;DHT22;4647;48.072;11.616;2022-07-19T13:36:18;31.30;36.10
9225;DHT22;4647;48.072;11.616;2022-07-19T13:38:45;31.20;35.90
9225;DHT22;4647;48.072;11.616;2022-07-19T13:41:15;31.20;36.00
9225;DHT22;4647;48.072;11.616;2022-07-19T13:43:43;31.10;35.60
9225;DHT22;4647;48.072;11.616;2022-07-19T13:46:10;31.10;35.60
9225;DHT22;4647;48.072;11.616;2022-07-19T13:48:37;31.10;36.10
9225;DHT22;4647;48.072;11.616;2022-07-19T13:51:04;31.30;35.30
9225;DHT22;4647;48.072;11.616;2022-07-19T13:53:35;31.10;35.20
9225;DHT22;4647;48.072;11.616;2022-07-19T13:56:03;31.10;35.30
9225;DHT22;4647;48.072;11.616;2022-07-19T13:58:31;31.10;34.70
9225;DHT22;4647;48.072;11.616;2022-07-19T14:00:58;31.10;35.00
9225;DHT22;4647;48.072;11.616;2022-07-19T14:03:25;31.10;34.00
9225;DHT22;4647;48.072;11.616;2022-07-19T14:05:52;31.10;33.90
9225;DHT22;4647;48.072;11.616;2022-07-19T14:08:19;31.30;35.20
9225;DHT22;4647;48.072;11.616;2022-07-19T14:10:46;31.30;34.00
9225;DHT22;4647;48.072;11.616;2022-07-19T14:13:13;31.50;34.80
9225;DHT22;4647;48.072;11.616;2022-07-19T14:15:42;31.40;34.20
9225;DHT22;4647;48.072;11.616;2022-07-19T14:18:10;31.30;33.60
9225;DHT22;4647;48.072;11.616;2022-07-19T14:20:40;31.30;33.50
9225;DHT22;4647;48.072;11.616;2022-07-19T14:23:07;31.30;33.10
9225;DHT22;4647;48.072;11.616;2022-07-19T14:25:34;31.40;33.30
9225;DHT22;4647;48.072;11.616;2022-07-19T14:28:01;31.50;33.50
9225;DHT22;4647;48.072;11.616;2022-07-19T14:30:28;31.60;34.20
9225;DHT22;4647;48.072;11.616;2022-07-19T14:32:56;31.70;34.50
9225;DHT22;4647;48.072;11.616;2022-07-19T14:35:23;31.70;33.80
9225;DHT22;4647;48.072;11.616;2022-07-19T14:37:50;31.60;35.10
9225;DHT22;4647;48.072;11.616;2022-07-19T14:40:17;31.50;34.00
9225;DHT22;4647;48.072;11.616;2022-07-19T14:42:44;31.50;34.40
9225;DHT22;4647;48.072;11.616;2022-07-19T14:45:11;31.40;34.20
9225;DHT22;4647;48.072;11.616;2022-07-19T14:47:39;31.30;34.10
9225;DHT22;4647;48.072;11.616;2022-07-19T14:50:09;31.30;33.30
9225;DHT22;4647;48.072;11.616;2022-07-19T14:52:37;31.30;33.70
9225;DHT22;4647;48.072;11.616;2022-07-19T14:55:06;31.30;33.90
9225;DHT22;4647;48.072;11.616;2022-07-19T14:57:33;31.30;34.70
9225;DHT22;4647;48.072;11.616;2022-07-19T15:00:00;31.40;35.10
9225;DHT22;4647;48.072;11.616;2022-07-19T15:02:27;31.40;34.40
9225;DHT22;4647;48.072;11.616;2022-07-19T15:04:54;31.40;34.10
9225;DHT22;4647;48.072;11.616;2022-07-19T15:07:24;31.30;35.30
9225;DHT22;4647;48.072;11.616;2022-07-19T15:09:50;31.40;35.60
9225;DHT22;4647;48.072;11.616;2022-07-19T15:12:18;31.40;35.70
9225;DHT22;4647;48.072;11.616;2022-07-19T15:14:45;31.30;35.60
9225;DHT22;4647;48.072;11.616;2022-07-19T15:17:12;31.10;35.60
9225;DHT22;4647;48.072;11.616;2022-07-19T15:19:39;31.10;35.90
9225;DHT22;4647;48.072;11.616;2022-07-19T15:22:06;31.10;36.20
9225;DHT22;4647;48.072;11.616;2022-07-19T15:24:34;31.10;37.00
9225;DHT22;4647;48.072;11.616;2022-07-19T15:27:01;31.10;36.40
9225;DHT22;4647;48.072;11.616;2022-07-19T15:29:28;31.10;36.80
9225;DHT22;4647;48.072;11.616;2022-07-19T15:31:55;31.00;36.70
9225;DHT22;4647;48.072;11.616;2022-07-19T15:34:22;31.00;36.40
9225;DHT22;4647;48.072;11.616;2022-07-19T15:36:49;31.00;36.80
9225;DHT22;4647;48.072;11.616;2022-07-19T15:39:16;31.00;36.60
9225;DHT22;4647;48.072;11.616;2022-07-19T15:41:44;30.90;36.50
9225;DHT22;4647;48.072;11.616;2022-07-19T15:44:11;30.90;37.00
9225;DHT22;4647;48.072;11.616;2022-07-19T15:46:38;30.80;37.50
9225;DHT22;4647;48.072;11.616;2022-07-19T15:49:05;30.90;37.50
9225;DHT22;4647;48.072;11.616;2022-07-19T15:51:33;30.90;37.20
9225;DHT22;4647;48.072;11.616;2022-07-19T15:54:00;30.90;37.30
9225;DHT22;4647;48.072;11.616;2022-07-19T15:56:27;30.80;37.70